createdAt,value
2023-05-21T00:00:20.797Z,13.78
2023-05-21T00:02:49.818Z,13.78
2023-05-21T00:05:19.158Z,13.71
2023-05-21T00:07:47.299Z,13.59
2023-05-21T00:10:16.420Z,13.64
2023-05-21T00:12:43.106Z,13.60
2023-05-21T00:15:10.208Z,13.56
2023-05-21T00:17:41.949Z,13.49
2023-05-21T00:20:09.463Z,13.46
2023-05-21T00:22:36.411Z,13.43
2023-05-21T00:25:06.465Z,13.42
2023-05-21T00:27:33.232Z,13.35
2023-05-21T00:29:59.988Z,13.38
2023-05-21T00:32:26.724Z,13.34
2023-05-21T00:34:53.501Z,13.33
2023-05-21T00:37:20.916Z,13.13
2023-05-21T00:39:48.000Z,13.27
2023-05-21T00:42:18.335Z,13.23
2023-05-21T00:44:48.396Z,13.20
2023-05-21T00:47:18.367Z,13.10
2023-05-21T00:49:45.154Z,13.14
2023-05-21T00:52:12.098Z,13.08
2023-05-21T00:54:39.563Z,12.98
2023-05-21T00:57:08.551Z,12.97
2023-05-21T00:59:35.436Z,12.96
2023-05-21T01:02:05.577Z,12.93
2023-05-21T01:04:32.808Z,12.89
2023-05-21T01:06:59.625Z,12.83
2023-05-21T01:09:29.378Z,12.81
2023-05-21T01:11:56.750Z,12.70
2023-05-21T01:14:25.059Z,12.68
2023-05-21T01:16:57.092Z,12.63
2023-05-21T01:19:24.862Z,12.48
2023-05-21T01:22:04.322Z,12.54
2023-05-21T01:24:31.505Z,12.49
2023-05-21T01:27:00.146Z,12.44
2023-05-21T01:29:26.967Z,12.36
2023-05-21T01:32:11.198Z,12.40
2023-05-21T01:35:06.682Z,12.32
2023-05-21T01:37:46.200Z,12.30
2023-05-21T01:40:38.349Z,12.25
2023-05-21T01:43:07.082Z,12.20
2023-05-21T01:45:42.617Z,12.16
2023-05-21T01:48:10.314Z,12.12
2023-05-21T01:50:41.090Z,12.07
2023-05-21T01:53:07.989Z,12.04
2023-05-21T01:55:35.840Z,11.99
2023-05-21T01:58:04.962Z,11.72
2023-05-21T02:00:32.722Z,11.82
2023-05-21T02:03:02.142Z,11.87
2023-05-21T02:05:29.012Z,11.86
2023-05-21T02:07:55.955Z,11.82
2023-05-21T02:10:25.144Z,11.68
2023-05-21T02:12:52.029Z,11.73
2023-05-21T02:15:19.335Z,11.71
2023-05-21T02:17:46.718Z,11.61
2023-05-21T02:20:14.045Z,11.68
2023-05-21T02:22:41.804Z,11.52
2023-05-21T02:25:10.134Z,11.65
2023-05-21T02:27:37.862Z,11.61
2023-05-21T02:30:07.053Z,11.48
2023-05-21T02:32:42.536Z,11.56
2023-05-21T02:35:11.417Z,11.46
2023-05-21T02:37:40.545Z,11.52
2023-05-21T02:40:08.380Z,11.36
2023-05-21T02:42:36.655Z,11.26
2023-05-21T02:45:03.689Z,11.44
2023-05-21T02:47:30.498Z,11.43
2023-05-21T02:49:59.904Z,10.99
2023-05-21T02:52:26.719Z,11.38
2023-05-21T02:54:53.820Z,11.28
2023-05-21T02:57:21.012Z,11.33
2023-05-21T02:59:47.755Z,11.32
2023-05-21T03:02:16.791Z,11.30
2023-05-21T03:04:46.848Z,11.19
2023-05-21T03:07:14.929Z,11.15
2023-05-21T03:09:42.505Z,11.11
2023-05-21T03:12:09.577Z,11.18
2023-05-21T03:14:36.643Z,11.17
2023-05-21T03:17:06.510Z,11.11
2023-05-21T03:19:37.139Z,10.88
2023-05-21T03:22:04.721Z,11.07
2023-05-21T03:24:31.868Z,11.07
2023-05-21T03:26:59.434Z,10.85
2023-05-21T03:29:30.884Z,10.95
2023-05-21T03:31:58.146Z,10.78
2023-05-21T03:34:27.669Z,10.89
2023-05-21T03:36:54.292Z,10.79
2023-05-21T03:39:23.457Z,10.94
2023-05-21T03:41:50.209Z,10.91
2023-05-21T03:44:17.036Z,10.94
2023-05-21T03:46:45.575Z,10.93
2023-05-21T03:49:12.386Z,10.84
2023-05-21T03:51:39.753Z,10.82
2023-05-21T03:54:06.705Z,10.88
2023-05-21T03:56:38.209Z,10.71
2023-05-21T03:59:05.125Z,10.85
2023-05-21T04:01:33.185Z,10.82
2023-05-21T04:04:00.026Z,10.84
2023-05-21T04:06:26.786Z,10.80
2023-05-21T04:08:55.839Z,10.63
2023-05-21T04:11:22.680Z,10.75
2023-05-21T04:13:50.399Z,10.83
2023-05-21T04:16:19.373Z,10.83
2023-05-21T04:18:52.436Z,10.78
2023-05-21T04:21:19.243Z,10.82
2023-05-21T04:23:46.264Z,10.79
2023-05-21T04:26:13.278Z,10.78
2023-05-21T04:28:42.142Z,10.74
2023-05-21T04:31:13.062Z,10.63
2023-05-21T04:33:42.227Z,10.79
2023-05-21T04:36:12.044Z,10.80
2023-05-21T04:38:39.953Z,10.80
2023-05-21T04:41:10.982Z,10.74
2023-05-21T04:43:38.364Z,10.74
2023-05-21T04:46:07.760Z,10.69
2023-05-21T04:48:34.481Z,10.78
2023-05-21T04:51:01.102Z,10.73
2023-05-21T04:53:27.857Z,10.76
2023-05-21T04:55:54.526Z,10.87
2023-05-21T04:58:21.257Z,10.78
2023-05-21T05:00:50.900Z,10.92
2023-05-21T05:03:20.004Z,10.83
2023-05-21T05:05:47.310Z,10.93
2023-05-21T05:08:15.730Z,10.98
2023-05-21T05:10:43.029Z,10.95
2023-05-21T05:13:09.988Z,11.02
2023-05-21T05:15:37.163Z,10.96
2023-05-21T05:18:04.163Z,11.09
2023-05-21T05:20:30.941Z,11.09
2023-05-21T05:22:57.633Z,11.22
2023-05-21T05:25:26.924Z,11.27
2023-05-21T05:27:56.179Z,11.27
2023-05-21T05:30:25.117Z,11.15
2023-05-21T05:32:51.887Z,11.32
2023-05-21T05:35:21.086Z,11.48
2023-05-21T05:37:47.739Z,11.51
2023-05-21T05:40:14.568Z,11.56
2023-05-21T05:42:41.268Z,11.62
2023-05-21T05:45:08.505Z,11.60
2023-05-21T05:47:35.211Z,11.75
2023-05-21T05:50:02.123Z,11.82
2023-05-21T05:52:28.804Z,11.80
2023-05-21T05:55:00.271Z,11.97
2023-05-21T05:57:26.956Z,12.06
2023-05-21T05:59:56.347Z,12.03
2023-05-21T06:02:23.155Z,12.19
2023-05-21T06:04:50.028Z,12.54
2023-05-21T06:07:16.743Z,13.18
2023-05-21T06:09:45.848Z,13.95
2023-05-21T06:12:15.973Z,14.60
2023-05-21T06:14:45.166Z,15.15
2023-05-21T06:17:12.550Z,15.03
2023-05-21T06:19:42.084Z,15.02
2023-05-21T06:22:08.782Z,14.82
2023-05-21T06:24:40.249Z,14.78
2023-05-21T06:27:07.081Z,15.03
2023-05-21T06:29:33.861Z,15.67
2023-05-21T06:32:01.846Z,16.44
2023-05-21T06:34:28.998Z,17.04
2023-05-21T06:36:55.801Z,17.78
2023-05-21T06:39:25.204Z,18.60
2023-05-21T06:41:51.978Z,19.23
2023-05-21T06:44:18.754Z,19.85
2023-05-21T06:46:50.357Z,20.27
2023-05-21T06:49:19.281Z,20.71
2023-05-21T06:51:46.249Z,21.05
2023-05-21T06:54:13.164Z,21.29
2023-05-21T06:56:42.702Z,21.74
2023-05-21T06:59:12.184Z,22.07
2023-05-21T07:01:42.574Z,22.44
2023-05-21T07:04:10.136Z,22.88
2023-05-21T07:06:37.876Z,23.35
2023-05-21T07:09:07.422Z,23.87
2023-05-21T07:11:36.626Z,24.05
2023-05-21T07:14:04.099Z,24.41
2023-05-21T07:16:31.028Z,24.53
2023-05-21T07:19:00.042Z,24.83
2023-05-21T07:21:26.812Z,25.12
2023-05-21T07:23:53.486Z,25.36
2023-05-21T07:26:20.181Z,25.23
2023-05-21T07:28:47.033Z,25.40
2023-05-21T07:31:16.091Z,25.60
2023-05-21T07:33:42.938Z,25.69
2023-05-21T07:36:11.923Z,25.72
2023-05-21T07:38:40.278Z,25.97
2023-05-21T07:41:07.004Z,26.18
2023-05-21T07:43:36.040Z,26.16
2023-05-21T07:46:05.467Z,26.32
2023-05-21T07:48:35.530Z,26.75
2023-05-21T07:51:04.140Z,27.27
2023-05-21T07:53:33.599Z,27.40
2023-05-21T07:56:01.037Z,27.45
2023-05-21T07:58:27.801Z,27.44
2023-05-21T08:00:54.536Z,27.56
2023-05-21T08:03:21.334Z,27.66
2023-05-21T08:05:53.560Z,27.97
2023-05-21T08:08:22.141Z,28.16
2023-05-21T08:10:49.531Z,27.95
2023-05-21T08:13:17.258Z,28.18
2023-05-21T08:15:44.094Z,28.26
2023-05-21T08:18:13.066Z,28.15
2023-05-21T08:20:40.431Z,28.22
2023-05-21T08:23:09.635Z,28.15
2023-05-21T08:25:38.728Z,28.00
2023-05-21T08:28:05.858Z,28.04
2023-05-21T08:30:32.507Z,28.10
2023-05-21T08:33:02.492Z,28.13
2023-05-21T08:35:29.286Z,27.97
2023-05-21T08:37:58.983Z,27.88
2023-05-21T08:40:25.680Z,28.13
2023-05-21T08:42:52.537Z,28.27
2023-05-21T08:45:25.382Z,28.34
2023-05-21T08:48:00.021Z,28.45
2023-05-21T08:50:30.230Z,28.44
2023-05-21T08:52:58.984Z,28.30
2023-05-21T08:55:27.068Z,28.38
2023-05-21T08:57:55.219Z,28.34
2023-05-21T09:00:24.411Z,28.21
2023-05-21T09:02:54.623Z,27.97
2023-05-21T09:05:22.731Z,27.99
2023-05-21T09:08:13.931Z,28.06
2023-05-21T09:10:48.199Z,27.91
2023-05-21T09:13:17.339Z,27.61
2023-05-21T09:15:48.182Z,27.57
2023-05-21T09:18:15.329Z,27.49
2023-05-21T09:20:42.246Z,27.43
2023-05-21T09:23:16.833Z,27.30
2023-05-21T09:25:52.095Z,27.24
2023-05-21T09:28:19.702Z,27.22
2023-05-21T09:30:48.352Z,27.11
2023-05-21T09:33:29.817Z,26.97
2023-05-21T09:35:58.886Z,26.95
2023-05-21T09:38:29.610Z,26.99
2023-05-21T09:41:01.536Z,27.05
2023-05-21T09:43:28.847Z,27.18
2023-05-21T09:46:02.007Z,27.28
2023-05-21T09:48:43.076Z,27.27
2023-05-21T09:51:21.370Z,27.12
2023-05-21T09:53:54.378Z,27.25
2023-05-21T09:56:29.460Z,27.19
2023-05-21T09:58:57.781Z,27.05
2023-05-21T10:01:25.459Z,26.71
2023-05-21T10:03:57.329Z,26.41
2023-05-21T10:06:33.787Z,26.34
2023-05-21T10:09:05.953Z,26.19
2023-05-21T10:11:37.222Z,26.09
2023-05-21T10:14:09.202Z,26.04
2023-05-21T10:16:37.214Z,25.93
2023-05-21T10:19:05.402Z,25.71
2023-05-21T10:21:34.949Z,25.59
2023-05-21T10:24:05.114Z,25.48
2023-05-21T10:26:34.254Z,25.15
2023-05-21T10:29:02.452Z,24.92
2023-05-21T10:31:29.836Z,24.73
2023-05-21T10:33:57.189Z,24.60
2023-05-21T10:36:31.103Z,24.46
2023-05-21T10:39:00.239Z,24.47
2023-05-21T10:41:32.104Z,24.44
2023-05-21T10:44:11.257Z,24.41
2023-05-21T10:47:02.819Z,24.41
2023-05-21T10:49:51.981Z,24.43
2023-05-21T10:52:34.057Z,24.32
2023-05-21T10:55:32.991Z,24.11
2023-05-21T10:58:02.673Z,24.05
2023-05-21T11:00:31.683Z,24.03
2023-05-21T11:03:05.938Z,23.85
2023-05-21T11:06:02.710Z,24.00
2023-05-21T11:08:36.282Z,23.98
2023-05-21T11:11:08.558Z,23.94
2023-05-21T11:13:49.344Z,24.17
2023-05-21T11:16:17.194Z,24.13
2023-05-21T11:18:46.945Z,24.24
2023-05-21T11:21:21.142Z,24.19
2023-05-21T11:23:53.242Z,24.11
2023-05-21T11:26:24.473Z,24.02
2023-05-21T11:29:03.357Z,23.70
2023-05-21T11:31:38.425Z,23.49
2023-05-21T11:34:11.381Z,23.33
2023-05-21T11:36:39.125Z,23.14
2023-05-21T11:39:17.893Z,23.01
2023-05-21T11:41:53.539Z,23.14
2023-05-21T11:44:41.731Z,23.22
2023-05-21T11:47:10.172Z,23.35
2023-05-21T11:49:37.780Z,23.34
2023-05-21T11:52:06.564Z,23.29
2023-05-21T11:54:37.626Z,23.31
2023-05-21T11:57:10.638Z,23.29
2023-05-21T11:59:37.595Z,23.22
2023-05-21T12:02:05.068Z,23.24
2023-05-21T12:04:36.489Z,23.19
2023-05-21T12:07:09.756Z,23.12
2023-05-21T12:09:50.602Z,23.23
2023-05-21T12:12:22.434Z,23.31
2023-05-21T12:14:53.360Z,23.35
2023-05-21T12:17:22.165Z,23.48
2023-05-21T12:19:51.669Z,23.48
2023-05-21T12:22:21.527Z,23.28
2023-05-21T12:24:51.070Z,23.14
2023-05-21T12:27:20.490Z,23.09
2023-05-21T12:29:50.058Z,23.07
2023-05-21T12:32:22.666Z,22.77
2023-05-21T12:34:54.907Z,22.74
2023-05-21T12:37:31.452Z,22.79
2023-05-21T12:40:07.840Z,22.76
2023-05-21T12:42:37.721Z,22.84
2023-05-21T12:45:10.682Z,22.85
2023-05-21T12:47:37.861Z,22.88
2023-05-21T12:50:12.299Z,22.92
2023-05-21T12:52:42.979Z,22.85
2023-05-21T12:55:11.844Z,22.80
2023-05-21T12:57:39.112Z,22.73
2023-05-21T13:00:07.654Z,22.52
2023-05-21T13:02:42.679Z,22.37
2023-05-21T13:05:15.862Z,22.26
2023-05-21T13:07:44.166Z,22.19
2023-05-21T13:10:12.396Z,22.19
2023-05-21T13:12:41.186Z,22.29
2023-05-21T13:15:10.929Z,22.34
2023-05-21T13:17:37.767Z,22.36
2023-05-21T13:20:12.361Z,22.40
2023-05-21T13:22:47.634Z,22.49
2023-05-21T13:25:21.849Z,22.52
2023-05-21T13:27:49.974Z,22.57
2023-05-21T13:30:22.774Z,22.61
2023-05-21T13:32:49.947Z,22.62
2023-05-21T13:35:19.171Z,22.58
2023-05-21T13:37:46.086Z,22.51
2023-05-21T13:40:15.308Z,22.54
2023-05-21T13:42:44.102Z,22.48
2023-05-21T13:45:13.167Z,22.53
2023-05-21T13:47:40.731Z,22.50
2023-05-21T13:50:08.865Z,22.47
2023-05-21T13:52:36.094Z,22.30
2023-05-21T13:55:04.993Z,22.38
2023-05-21T13:57:34.140Z,22.27
2023-05-21T14:00:01.314Z,22.22
2023-05-21T14:02:30.924Z,22.25
2023-05-21T14:04:57.627Z,22.20
2023-05-21T14:07:24.425Z,22.20
2023-05-21T14:09:53.902Z,22.29
2023-05-21T14:12:20.760Z,22.35
2023-05-21T14:14:49.878Z,22.29
2023-05-21T14:17:16.961Z,22.20
2023-05-21T14:19:46.062Z,22.01
2023-05-21T14:22:13.262Z,22.13
2023-05-21T14:24:40.055Z,22.11
2023-05-21T14:27:06.717Z,22.27
2023-05-21T14:29:33.565Z,22.19
2023-05-21T14:32:00.308Z,22.17
2023-05-21T14:34:27.152Z,22.08
2023-05-21T14:36:56.162Z,22.06
2023-05-21T14:39:23.134Z,22.05
2023-05-21T14:41:52.377Z,22.01
2023-05-21T14:44:21.269Z,21.91
2023-05-21T14:46:48.072Z,21.86
2023-05-21T14:49:14.782Z,21.86
2023-05-21T14:51:43.783Z,21.92
2023-05-21T14:54:10.508Z,21.95
2023-05-21T14:56:39.716Z,21.95
2023-05-21T14:59:11.366Z,22.15
2023-05-21T15:01:38.342Z,22.18
2023-05-21T15:04:08.131Z,22.13
2023-05-21T15:06:37.456Z,22.02
2023-05-21T15:09:04.221Z,21.93
2023-05-21T15:11:31.034Z,22.03
2023-05-21T15:13:59.932Z,21.95
2023-05-21T15:16:28.956Z,21.90
2023-05-21T15:18:56.073Z,21.75
2023-05-21T15:21:27.834Z,21.64
2023-05-21T15:23:54.773Z,21.60
2023-05-21T15:26:21.773Z,21.58
2023-05-21T15:28:48.676Z,21.58
2023-05-21T15:31:15.440Z,21.47
2023-05-21T15:33:45.288Z,21.51
2023-05-21T15:36:12.071Z,21.56
2023-05-21T15:38:38.792Z,21.67
2023-05-21T15:41:08.394Z,21.74
2023-05-21T15:43:35.731Z,21.65
2023-05-21T15:46:02.735Z,21.72
2023-05-21T15:48:29.551Z,21.61
2023-05-21T15:50:58.543Z,21.48
2023-05-21T15:53:25.328Z,21.37
2023-05-21T15:55:52.090Z,21.36
2023-05-21T15:58:19.092Z,21.31
2023-05-21T16:00:48.964Z,21.53
2023-05-21T16:03:17.806Z,21.49
2023-05-21T16:05:44.568Z,21.59
2023-05-21T16:08:12.246Z,21.48
2023-05-21T16:10:40.072Z,21.34
2023-05-21T16:13:09.084Z,21.20
2023-05-21T16:15:36.156Z,21.12
2023-05-21T16:18:03.158Z,21.10
2023-05-21T16:20:30.889Z,20.95
2023-05-21T16:22:57.561Z,21.02
2023-05-21T16:25:26.582Z,20.96
2023-05-21T16:27:53.251Z,21.03
2023-05-21T16:30:20.098Z,21.29
2023-05-21T16:32:46.805Z,21.31
2023-05-21T16:35:15.789Z,21.33
2023-05-21T16:37:42.500Z,21.40
2023-05-21T16:40:09.865Z,21.47
2023-05-21T16:42:39.902Z,21.30
2023-05-21T16:45:07.042Z,21.36
2023-05-21T16:47:33.724Z,21.23
2023-05-21T16:50:01.840Z,21.27
2023-05-21T16:52:30.852Z,21.28
2023-05-21T16:54:57.533Z,21.28
2023-05-21T16:57:26.676Z,21.24
2023-05-21T16:59:53.598Z,21.30
2023-05-21T17:02:20.453Z,21.33
2023-05-21T17:04:47.897Z,21.28
2023-05-21T17:07:15.715Z,21.34
2023-05-21T17:09:42.614Z,21.33
2023-05-21T17:12:11.684Z,21.28
2023-05-21T17:14:40.388Z,21.31
2023-05-21T17:17:09.896Z,21.32
2023-05-21T17:19:37.404Z,21.31
2023-05-21T17:22:04.649Z,21.27
2023-05-21T17:24:31.361Z,21.27
2023-05-21T17:26:58.124Z,21.27
2023-05-21T17:29:24.857Z,21.06
2023-05-21T17:31:51.587Z,21.23
2023-05-21T17:34:21.340Z,21.24
2023-05-21T17:36:48.040Z,21.18
2023-05-21T17:39:14.815Z,21.16
2023-05-21T17:41:43.733Z,21.13
2023-05-21T17:44:13.732Z,21.11
2023-05-21T17:46:40.611Z,21.13
2023-05-21T17:49:08.946Z,21.08
2023-05-21T17:51:37.160Z,21.12
2023-05-21T17:54:04.683Z,21.09
2023-05-21T17:56:38.851Z,21.05
2023-05-21T17:59:12.121Z,21.05
2023-05-21T18:01:40.146Z,21.04
2023-05-21T18:04:12.298Z,21.01
2023-05-21T18:06:41.929Z,20.98
2023-05-21T18:09:10.578Z,20.96
2023-05-21T18:11:39.585Z,20.91
2023-05-21T18:14:06.279Z,20.85
2023-05-21T18:16:33.114Z,20.73
2023-05-21T18:19:05.791Z,20.82
2023-05-21T18:21:35.166Z,20.80
2023-05-21T18:24:02.648Z,20.78
2023-05-21T18:26:32.443Z,20.68
2023-05-21T18:29:01.880Z,20.65
2023-05-21T18:31:28.714Z,20.27
2023-05-21T18:33:55.472Z,20.57
2023-05-21T18:36:24.358Z,20.49
2023-05-21T18:38:53.456Z,20.45
2023-05-21T18:41:23.873Z,20.49
2023-05-21T18:43:50.629Z,20.44
2023-05-21T18:46:17.324Z,20.40
2023-05-21T18:48:44.080Z,20.37
2023-05-21T18:51:10.848Z,20.35
2023-05-21T18:53:40.523Z,20.29
2023-05-21T18:56:10.385Z,20.27
2023-05-21T18:58:38.155Z,20.25
2023-05-21T19:01:06.443Z,20.09
2023-05-21T19:03:35.564Z,20.17
2023-05-21T19:06:02.364Z,20.12
2023-05-21T19:08:29.626Z,20.12
2023-05-21T19:10:56.358Z,20.10
2023-05-21T19:13:23.538Z,20.06
2023-05-21T19:15:50.280Z,19.91
2023-05-21T19:18:17.423Z,19.83
2023-05-21T19:20:44.206Z,19.94
2023-05-21T19:23:11.118Z,19.89
2023-05-21T19:25:38.448Z,19.89
2023-05-21T19:28:05.583Z,19.83
2023-05-21T19:30:35.007Z,19.70
2023-05-21T19:33:02.082Z,19.67
2023-05-21T19:35:28.944Z,19.58
2023-05-21T19:37:59.536Z,19.53
2023-05-21T19:40:29.580Z,19.47
2023-05-21T19:43:01.125Z,19.31
2023-05-21T19:45:28.050Z,19.23
2023-05-21T19:47:54.816Z,19.27
2023-05-21T19:50:23.792Z,19.21
2023-05-21T19:52:50.842Z,19.10
2023-05-21T19:55:20.433Z,19.15
2023-05-21T19:57:47.590Z,19.13
2023-05-21T20:00:16.663Z,19.01
2023-05-21T20:02:43.617Z,19.05
2023-05-21T20:05:10.516Z,19.00
2023-05-21T20:07:39.944Z,18.63
2023-05-21T20:10:11.528Z,18.85
2023-05-21T20:12:38.546Z,18.82
2023-05-21T20:15:07.049Z,18.81
2023-05-21T20:17:39.349Z,18.80
2023-05-21T20:20:10.312Z,18.69
2023-05-21T20:22:37.178Z,18.68
2023-05-21T20:25:08.586Z,18.49
2023-05-21T20:27:35.805Z,18.61
2023-05-21T20:30:02.502Z,18.44
2023-05-21T20:32:29.200Z,18.55
2023-05-21T20:35:03.309Z,18.52
2023-05-21T20:37:33.959Z,18.47
2023-05-21T20:40:02.931Z,18.36
2023-05-21T20:42:34.429Z,18.34
2023-05-21T20:45:01.906Z,18.41
2023-05-21T20:47:31.540Z,18.36
2023-05-21T20:50:00.160Z,18.09
2023-05-21T20:52:27.098Z,18.27
2023-05-21T20:54:59.637Z,18.19
2023-05-21T20:57:27.481Z,18.13
2023-05-21T20:59:54.570Z,18.11
2023-05-21T21:02:21.734Z,18.02
2023-05-21T21:04:49.974Z,17.98
2023-05-21T21:07:20.475Z,17.84
2023-05-21T21:09:48.524Z,17.83
2023-05-21T21:12:25.792Z,17.73
2023-05-21T21:14:54.248Z,17.64
2023-05-21T21:17:21.267Z,17.51
2023-05-21T21:19:48.027Z,17.46
2023-05-21T21:22:16.087Z,17.40
2023-05-21T21:24:42.844Z,17.20
2023-05-21T21:27:09.553Z,17.29
2023-05-21T21:29:38.462Z,17.07
2023-05-21T21:32:05.819Z,17.12
2023-05-21T21:34:32.473Z,17.07
2023-05-21T21:37:01.399Z,17.00
2023-05-21T21:39:30.165Z,16.93
2023-05-21T21:41:56.917Z,16.70
2023-05-21T21:44:26.059Z,16.76
2023-05-21T21:46:55.084Z,16.72
2023-05-21T21:49:21.763Z,16.59
2023-05-21T21:51:49.074Z,16.47
2023-05-21T21:54:15.874Z,16.53
2023-05-21T21:56:43.784Z,16.34
2023-05-21T21:59:10.475Z,16.42
2023-05-21T22:01:37.317Z,16.37
2023-05-21T22:04:04.232Z,16.32
2023-05-21T22:06:31.367Z,16.24
2023-05-21T22:08:58.087Z,16.17
2023-05-21T22:11:27.038Z,16.11
2023-05-21T22:13:56.400Z,15.91
2023-05-21T22:16:25.577Z,15.99
2023-05-21T22:18:54.360Z,15.94
2023-05-21T22:21:21.565Z,15.87
2023-05-21T22:23:48.359Z,15.68
2023-05-21T22:26:15.111Z,15.72
2023-05-21T22:28:44.126Z,15.68
2023-05-21T22:31:10.812Z,15.61
2023-05-21T22:33:37.495Z,15.57
2023-05-21T22:36:04.543Z,15.43
2023-05-21T22:38:31.235Z,15.45
2023-05-21T22:41:00.182Z,15.40
2023-05-21T22:43:27.338Z,15.26
2023-05-21T22:45:54.162Z,15.26
2023-05-21T22:48:22.104Z,15.20
2023-05-21T22:50:50.251Z,15.15
2023-05-21T22:53:19.584Z,15.10
2023-05-21T22:55:48.704Z,14.93
2023-05-21T22:58:17.739Z,15.02
2023-05-21T23:00:44.572Z,14.97
2023-05-21T23:03:11.544Z,14.92
2023-05-21T23:05:40.884Z,14.87
2023-05-21T23:08:07.808Z,14.83
2023-05-21T23:10:35.557Z,14.76
2023-05-21T23:13:02.366Z,14.72
2023-05-21T23:15:29.662Z,14.72
2023-05-21T23:17:57.127Z,14.68
2023-05-21T23:20:25.964Z,14.63
2023-05-21T23:22:52.750Z,14.62
2023-05-21T23:25:22.382Z,14.59
2023-05-21T23:27:49.152Z,14.41
2023-05-21T23:30:16.186Z,14.44
2023-05-21T23:32:44.967Z,14.48
2023-05-21T23:35:11.737Z,14.51
2023-05-21T23:37:38.465Z,14.48
2023-05-21T23:40:05.793Z,14.47
2023-05-21T23:42:32.466Z,14.42
2023-05-21T23:44:59.188Z,14.41
2023-05-21T23:47:25.995Z,14.23
2023-05-21T23:49:53.123Z,14.36
2023-05-21T23:52:19.839Z,14.22
2023-05-21T23:54:47.505Z,14.28
2023-05-21T23:57:14.364Z,14.26
2023-05-21T23:59:41.141Z,14.18
